createdAt,value
2022-08-20T00:01:16.729Z,0.40
2022-08-20T00:03:53.262Z,0.30
2022-08-20T00:06:24.323Z,0.50
2022-08-20T00:08:52.202Z,0.50
2022-08-20T00:11:23.243Z,0.47
2022-08-20T00:14:00.872Z,0.50
2022-08-20T00:16:32.477Z,0.50
2022-08-20T00:19:06.249Z,0.30
2022-08-20T00:21:34.183Z,0.40
2022-08-20T00:24:02.623Z,0.50
2022-08-20T00:26:30.116Z,0.40
2022-08-20T00:28:57.410Z,0.50
2022-08-20T00:31:25.338Z,0.50
2022-08-20T00:33:53.937Z,0.40
2022-08-20T00:36:22.776Z,0.40
2022-08-20T00:39:01.142Z,0.40
2022-08-20T00:41:31.254Z,0.40
2022-08-20T00:44:07.857Z,0.50
2022-08-20T00:46:35.585Z,0.30
2022-08-20T00:49:05.996Z,0.40
2022-08-20T00:51:41.489Z,0.40
2022-08-20T00:54:23.906Z,0.40
2022-08-20T00:57:06.187Z,0.43
2022-08-20T00:59:37.368Z,0.52
2022-08-20T01:02:08.924Z,0.43
2022-08-20T01:04:37.307Z,0.50
2022-08-20T01:07:05.928Z,0.47
2022-08-20T01:09:58.211Z,0.40
2022-08-20T01:12:24.122Z,0.40
2022-08-20T01:14:53.228Z,0.40
2022-08-20T01:17:23.674Z,0.40
2022-08-20T01:20:05.116Z,0.47
2022-08-20T01:23:32.653Z,0.40
2022-08-20T01:26:04.397Z,0.50
2022-08-20T01:29:02.742Z,0.30
2022-08-20T01:31:34.347Z,0.35
2022-08-20T01:34:04.241Z,0.43
2022-08-20T01:36:46.490Z,0.30
2022-08-20T01:39:17.820Z,0.40
2022-08-20T01:42:15.543Z,0.30
2022-08-20T01:44:44.910Z,0.40
2022-08-20T01:47:15.208Z,0.38
2022-08-20T01:49:53.867Z,0.40
2022-08-20T01:52:33.994Z,0.40
2022-08-20T01:55:02.617Z,0.40
2022-08-20T01:57:30.002Z,0.30
2022-08-20T01:59:57.450Z,0.50
2022-08-20T02:02:26.582Z,0.32
2022-08-20T02:04:54.191Z,0.40
2022-08-20T02:07:23.795Z,0.40
2022-08-20T02:09:51.374Z,0.47
2022-08-20T02:12:19.276Z,0.35
2022-08-20T02:14:51.448Z,0.50
2022-08-20T02:17:23.006Z,0.38
2022-08-20T02:19:59.114Z,0.40
2022-08-20T02:23:01.708Z,0.50
2022-08-20T02:25:32.941Z,0.55
2022-08-20T02:28:03.179Z,0.50
2022-08-20T02:30:34.149Z,0.43
2022-08-20T02:33:05.778Z,0.60
2022-08-20T02:35:35.422Z,0.70
2022-08-20T02:38:03.012Z,0.70
2022-08-20T02:40:31.694Z,0.63
2022-08-20T02:43:00.732Z,0.60
2022-08-20T02:45:29.802Z,0.50
2022-08-20T02:47:59.249Z,0.50
2022-08-20T02:50:27.997Z,0.70
2022-08-20T02:52:55.543Z,0.70
2022-08-20T02:55:27.870Z,0.55
2022-08-20T02:57:58.860Z,0.60
2022-08-20T03:00:28.360Z,0.60
2022-08-20T03:02:55.880Z,0.57
2022-08-20T03:05:23.217Z,0.70
2022-08-20T03:07:57.053Z,0.70
2022-08-20T03:10:28.081Z,0.80
2022-08-20T03:12:55.723Z,0.65
2022-08-20T03:15:23.102Z,0.60
2022-08-20T03:17:50.372Z,0.73
2022-08-20T03:20:17.822Z,0.50
2022-08-20T03:22:51.465Z,0.77
2022-08-20T03:25:19.188Z,1.27
2022-08-20T03:27:47.345Z,0.50
2022-08-20T03:30:22.494Z,0.50
2022-08-20T03:32:50.275Z,0.77
2022-08-20T03:35:19.724Z,0.50
2022-08-20T03:37:48.138Z,0.60
2022-08-20T03:40:22.179Z,0.60
2022-08-20T03:42:49.451Z,0.55
2022-08-20T03:45:20.344Z,0.60
2022-08-20T03:47:49.023Z,0.30
2022-08-20T03:50:23.489Z,0.55
2022-08-20T03:52:55.464Z,0.63
2022-08-20T03:55:25.219Z,0.60
2022-08-20T03:57:56.514Z,0.70
2022-08-20T04:00:31.111Z,0.70
2022-08-20T04:02:58.376Z,0.80
2022-08-20T04:05:28.313Z,0.75
2022-08-20T04:08:00.084Z,0.50
2022-08-20T04:10:31.982Z,0.77
2022-08-20T04:12:59.272Z,0.90
2022-08-20T04:15:26.809Z,0.95
2022-08-20T04:17:54.323Z,1.25
2022-08-20T04:20:24.235Z,0.68
2022-08-20T04:22:59.458Z,0.60
2022-08-20T04:25:35.851Z,0.82
2022-08-20T04:28:07.155Z,0.82
2022-08-20T04:30:34.888Z,0.93
2022-08-20T04:33:02.457Z,0.75
2022-08-20T04:35:31.093Z,0.70
2022-08-20T04:38:04.487Z,0.63
2022-08-20T04:40:50.064Z,0.55
2022-08-20T04:43:17.805Z,0.77
2022-08-20T04:45:45.932Z,0.68
2022-08-20T04:48:15.281Z,1.00
2022-08-20T04:50:45.073Z,0.90
2022-08-20T04:53:14.165Z,0.88
2022-08-20T04:55:43.092Z,0.77
2022-08-20T04:58:18.392Z,1.08
2022-08-20T05:00:52.112Z,0.73
2022-08-20T05:03:20.270Z,1.13
2022-08-20T05:05:48.254Z,0.80
2022-08-20T05:08:19.959Z,0.57
2022-08-20T05:10:47.620Z,0.70
2022-08-20T05:13:15.283Z,0.85
2022-08-20T05:15:45.707Z,0.80
2022-08-20T05:18:13.488Z,0.93
2022-08-20T05:20:42.517Z,0.77
2022-08-20T05:23:11.468Z,1.23
2022-08-20T05:25:40.293Z,1.10
2022-08-20T05:28:12.454Z,1.00
2022-08-20T05:30:45.445Z,1.00
2022-08-20T05:33:17.970Z,1.00
2022-08-20T05:35:47.310Z,1.38
2022-08-20T05:38:18.396Z,1.23
2022-08-20T05:40:46.542Z,1.05
2022-08-20T05:43:14.150Z,0.95
2022-08-20T05:45:42.992Z,1.30
2022-08-20T05:48:13.848Z,1.00
2022-08-20T05:50:42.763Z,0.90
2022-08-20T05:53:10.543Z,0.80
2022-08-20T05:55:38.978Z,0.80
2022-08-20T05:58:09.950Z,0.90
2022-08-20T06:00:37.530Z,1.00
2022-08-20T06:03:23.200Z,1.13
2022-08-20T06:05:51.052Z,0.75
2022-08-20T06:08:18.316Z,1.65
2022-08-20T06:10:46.066Z,1.05
2022-08-20T06:13:14.169Z,1.00
2022-08-20T06:15:41.868Z,0.95
2022-08-20T06:18:27.433Z,1.00
2022-08-20T06:20:56.693Z,0.82
2022-08-20T06:23:25.443Z,1.08
2022-08-20T06:25:53.062Z,1.50
2022-08-20T06:28:20.426Z,0.93
2022-08-20T06:30:48.064Z,0.98
2022-08-20T06:33:15.407Z,0.93
2022-08-20T06:35:44.754Z,0.70
2022-08-20T06:38:13.052Z,1.15
2022-08-20T06:40:40.654Z,0.90
2022-08-20T06:43:09.221Z,1.00
2022-08-20T06:45:39.029Z,1.10
2022-08-20T06:48:15.568Z,1.00
2022-08-20T06:50:48.063Z,0.90
2022-08-20T06:53:18.751Z,0.80
2022-08-20T06:55:50.202Z,1.27
2022-08-20T06:58:35.577Z,1.42
2022-08-20T07:01:11.112Z,1.85
2022-08-20T07:03:42.364Z,1.95
2022-08-20T07:06:23.716Z,1.20
2022-08-20T07:08:50.886Z,1.40
2022-08-20T07:11:18.318Z,1.42
2022-08-20T07:13:45.557Z,1.30
2022-08-20T07:16:12.909Z,1.30
2022-08-20T07:18:40.237Z,1.92
2022-08-20T07:21:07.589Z,1.20
2022-08-20T07:23:35.178Z,1.83
2022-08-20T07:26:03.562Z,1.13
2022-08-20T07:28:32.544Z,1.45
2022-08-20T07:31:20.308Z,1.20
2022-08-20T07:33:50.230Z,1.60
2022-08-20T07:36:18.662Z,1.70
2022-08-20T07:38:47.550Z,1.60
2022-08-20T07:41:15.238Z,2.10
2022-08-20T07:43:45.832Z,1.50
2022-08-20T07:46:16.278Z,1.27
2022-08-20T07:48:50.388Z,2.47
2022-08-20T07:51:20.496Z,1.08
2022-08-20T07:53:50.064Z,1.05
2022-08-20T07:56:21.439Z,1.30
2022-08-20T07:58:55.621Z,0.93
2022-08-20T08:01:29.740Z,1.55
2022-08-20T08:03:59.050Z,1.58
2022-08-20T08:06:29.436Z,1.17
2022-08-20T08:09:18.412Z,1.08
2022-08-20T08:11:52.568Z,1.30
2022-08-20T08:14:23.811Z,1.17
2022-08-20T08:16:51.631Z,0.95
2022-08-20T08:19:19.393Z,1.30
2022-08-20T08:21:46.912Z,1.13
2022-08-20T08:24:19.948Z,0.90
2022-08-20T08:26:50.316Z,1.00
2022-08-20T08:29:17.719Z,1.35
2022-08-20T08:31:45.130Z,0.75
2022-08-20T08:34:13.317Z,0.98
2022-08-20T08:36:40.946Z,1.45
2022-08-20T08:39:08.301Z,1.20
2022-08-20T08:41:48.457Z,0.90
2022-08-20T08:44:27.417Z,1.63
2022-08-20T08:47:18.708Z,0.90
2022-08-20T08:49:48.313Z,1.10
2022-08-20T08:52:24.487Z,1.02
2022-08-20T08:54:55.309Z,0.90
2022-08-20T08:57:24.289Z,0.82
2022-08-20T09:00:04.356Z,0.98
2022-08-20T09:02:36.303Z,1.00
2022-08-20T09:05:15.164Z,0.95
2022-08-20T09:07:45.989Z,1.00
2022-08-20T09:10:13.307Z,0.98
2022-08-20T09:12:44.468Z,1.02
2022-08-20T09:15:15.417Z,1.05
2022-08-20T09:17:42.855Z,0.82
2022-08-20T09:20:10.754Z,0.85
2022-08-20T09:22:38.125Z,1.20
2022-08-20T09:25:06.024Z,1.00
2022-08-20T09:27:33.906Z,1.02
2022-08-20T09:30:01.375Z,1.00
2022-08-20T09:32:28.719Z,0.90
2022-08-20T09:34:57.003Z,0.88
2022-08-20T09:37:27.763Z,0.80
2022-08-20T09:39:56.210Z,1.10
2022-08-20T09:42:26.731Z,0.90
2022-08-20T09:44:54.803Z,1.00
2022-08-20T09:47:22.264Z,0.73
2022-08-20T09:49:49.749Z,0.80
2022-08-20T09:52:31.316Z,0.77
2022-08-20T09:55:05.870Z,1.05
2022-08-20T09:57:33.223Z,0.60
2022-08-20T10:00:06.212Z,0.93
2022-08-20T10:02:39.848Z,0.80
2022-08-20T10:05:09.385Z,0.90
2022-08-20T10:07:40.688Z,0.70
2022-08-20T10:10:11.605Z,0.60
2022-08-20T10:12:40.898Z,0.65
2022-08-20T10:15:09.007Z,0.70
2022-08-20T10:17:43.402Z,0.50
2022-08-20T10:20:14.701Z,0.70
2022-08-20T10:22:42.272Z,0.40
2022-08-20T10:25:10.118Z,0.50
2022-08-20T10:27:38.337Z,0.50
2022-08-20T10:30:07.146Z,0.45
2022-08-20T10:32:34.478Z,0.50
2022-08-20T10:35:02.181Z,0.40
2022-08-20T10:37:29.596Z,0.32
2022-08-20T10:39:57.234Z,0.60
2022-08-20T10:42:24.530Z,0.60
2022-08-20T10:44:52.012Z,0.60
2022-08-20T10:47:24.390Z,0.50
2022-08-20T10:49:54.485Z,0.40
2022-08-20T10:52:23.316Z,0.40
2022-08-20T10:54:51.959Z,0.30
2022-08-20T10:57:25.533Z,0.40
2022-08-20T10:59:54.843Z,0.40
2022-08-20T11:02:22.924Z,0.40
2022-08-20T11:04:50.961Z,0.43
2022-08-20T11:07:54.777Z,0.30
2022-08-20T11:10:13.958Z,0.40
2022-08-20T11:12:42.012Z,0.40
2022-08-20T11:15:12.245Z,0.40
2022-08-20T11:17:41.954Z,0.65
2022-08-20T11:20:11.401Z,0.57
2022-08-20T11:22:38.886Z,0.60
2022-08-20T11:25:07.593Z,0.52
2022-08-20T11:27:39.581Z,0.60
2022-08-20T11:30:10.003Z,0.60
2022-08-20T11:32:37.605Z,0.30
2022-08-20T11:35:24.480Z,0.50
2022-08-20T11:37:54.628Z,0.45
2022-08-20T11:40:22.309Z,0.50
2022-08-20T11:43:13.042Z,0.45
2022-08-20T11:45:37.788Z,0.50
2022-08-20T11:48:05.912Z,0.40
2022-08-20T11:50:33.157Z,0.52
2022-08-20T11:53:01.131Z,0.40
2022-08-20T11:55:30.402Z,0.50
2022-08-20T11:58:00.366Z,0.40
2022-08-20T12:00:32.780Z,0.50
2022-08-20T12:03:08.897Z,0.40
2022-08-20T12:05:42.539Z,0.50
2022-08-20T12:08:25.113Z,0.60
2022-08-20T12:10:55.970Z,0.30
2022-08-20T12:13:30.554Z,0.50
2022-08-20T12:16:11.585Z,0.77
2022-08-20T12:18:38.933Z,0.52
2022-08-20T12:21:06.341Z,0.30
2022-08-20T12:23:33.539Z,0.40
2022-08-20T12:26:03.395Z,0.80
2022-08-20T12:28:31.488Z,0.50
2022-08-20T12:30:59.214Z,0.60
2022-08-20T12:33:26.906Z,0.40
2022-08-20T12:35:54.209Z,0.50
2022-08-20T12:38:21.683Z,0.60
2022-08-20T12:40:48.877Z,0.30
2022-08-20T12:43:16.116Z,0.28
2022-08-20T12:45:43.327Z,0.45
2022-08-20T12:48:13.240Z,0.50
2022-08-20T12:50:42.630Z,0.40
2022-08-20T12:53:11.043Z,0.30
2022-08-20T12:55:38.465Z,0.57
2022-08-20T12:58:09.195Z,0.88
2022-08-20T13:00:47.258Z,0.40
2022-08-20T13:03:19.066Z,0.75
2022-08-20T13:05:46.524Z,0.30
2022-08-20T13:08:14.253Z,0.60
2022-08-20T13:10:45.758Z,0.40
2022-08-20T13:13:17.712Z,0.50
2022-08-20T13:15:49.077Z,0.55
2022-08-20T13:18:16.590Z,0.50
2022-08-20T13:20:43.912Z,0.60
2022-08-20T13:23:11.080Z,0.80
2022-08-20T13:25:38.289Z,0.38
2022-08-20T13:28:06.010Z,0.40
2022-08-20T13:30:35.352Z,0.47
2022-08-20T13:33:02.981Z,0.40
2022-08-20T13:35:30.650Z,0.40
2022-08-20T13:37:58.002Z,0.35
2022-08-20T13:40:26.057Z,0.30
2022-08-20T13:42:53.537Z,0.40
2022-08-20T13:45:20.931Z,0.40
2022-08-20T13:47:54.270Z,0.30
2022-08-20T13:50:24.738Z,0.50
2022-08-20T13:52:52.813Z,0.40
2022-08-20T13:55:22.417Z,0.40
2022-08-20T13:58:27.865Z,0.55
2022-08-20T14:00:55.187Z,0.30
2022-08-20T14:03:25.509Z,0.40
2022-08-20T14:05:53.696Z,0.47
2022-08-20T14:08:23.277Z,0.47
2022-08-20T14:10:51.593Z,0.30
2022-08-20T14:13:22.549Z,0.50
2022-08-20T14:15:50.597Z,0.52
2022-08-20T14:18:18.023Z,0.60
2022-08-20T14:20:45.954Z,0.43
2022-08-20T14:23:14.576Z,0.32
2022-08-20T14:25:44.665Z,0.50
2022-08-20T14:28:14.845Z,0.40
2022-08-20T14:30:46.715Z,0.47
2022-08-20T14:33:25.106Z,0.40
2022-08-20T14:35:53.254Z,0.40
2022-08-20T14:38:21.061Z,0.43
2022-08-20T14:40:50.384Z,0.70
2022-08-20T14:43:17.986Z,0.40
2022-08-20T14:45:45.283Z,0.32
2022-08-20T14:48:14.491Z,0.50
2022-08-20T14:50:41.829Z,0.63
2022-08-20T14:53:09.137Z,0.40
2022-08-20T14:55:38.084Z,0.40
2022-08-20T14:58:13.377Z,0.45
2022-08-20T15:00:41.773Z,0.40
2022-08-20T15:03:09.635Z,0.50
2022-08-20T15:05:39.633Z,0.60
2022-08-20T15:08:09.053Z,0.47
2022-08-20T15:10:39.487Z,0.50
2022-08-20T15:13:08.273Z,0.30
2022-08-20T15:15:35.828Z,0.30
2022-08-20T15:18:03.973Z,0.50
2022-08-20T15:20:36.512Z,0.40
2022-08-20T15:23:04.661Z,0.50
2022-08-20T15:25:36.420Z,0.30
2022-08-20T15:28:08.816Z,0.40
2022-08-20T15:30:39.873Z,0.40
2022-08-20T15:33:07.604Z,0.70
2022-08-20T15:35:35.420Z,0.50
2022-08-20T15:38:02.812Z,0.43
2022-08-20T15:40:32.020Z,0.50
2022-08-20T15:43:01.748Z,0.47
2022-08-20T15:45:29.296Z,0.55
2022-08-20T15:48:16.871Z,0.50
2022-08-20T15:51:32.961Z,0.40
2022-08-20T15:54:02.037Z,0.30
2022-08-20T15:56:49.496Z,0.50
2022-08-20T15:59:42.421Z,0.40
2022-08-20T16:02:25.798Z,0.40
2022-08-20T16:05:16.140Z,0.52
2022-08-20T16:07:46.379Z,0.50
2022-08-20T16:10:42.780Z,0.60
2022-08-20T16:13:40.901Z,0.73
2022-08-20T16:16:36.425Z,0.43
2022-08-20T16:19:04.803Z,0.50
2022-08-20T16:21:39.737Z,0.47
2022-08-20T16:24:08.367Z,0.60
2022-08-20T16:26:59.775Z,0.43
2022-08-20T16:29:53.554Z,0.40
2022-08-20T16:32:21.017Z,0.50
2022-08-20T16:34:59.165Z,0.40
2022-08-20T16:37:38.335Z,0.60
2022-08-20T16:40:20.933Z,0.60
2022-08-20T16:42:51.431Z,0.50
2022-08-20T16:45:52.092Z,0.60
2022-08-20T16:48:20.419Z,0.50
2022-08-20T16:51:02.105Z,0.43
2022-08-20T16:53:29.529Z,0.50
2022-08-20T16:55:57.639Z,0.35
2022-08-20T16:58:25.313Z,0.40
2022-08-20T17:01:11.951Z,0.70
2022-08-20T17:03:47.838Z,0.60
2022-08-20T17:06:24.648Z,0.70
2022-08-20T17:08:53.218Z,0.40
2022-08-20T17:11:33.980Z,0.35
2022-08-20T17:14:11.245Z,0.60
2022-08-20T17:16:47.643Z,0.50
2022-08-20T17:19:25.096Z,0.50
2022-08-20T17:21:52.279Z,0.57
2022-08-20T17:24:30.215Z,0.28
2022-08-20T17:27:04.846Z,0.70
2022-08-20T17:29:53.948Z,0.50
2022-08-20T17:32:29.875Z,0.40
2022-08-20T17:35:00.602Z,0.50
2022-08-20T17:37:34.818Z,0.40
2022-08-20T17:40:11.392Z,0.43
2022-08-20T17:42:56.987Z,0.40
2022-08-20T17:45:44.872Z,0.70
2022-08-20T17:48:33.061Z,0.65
2022-08-20T17:51:08.823Z,0.50
2022-08-20T17:53:39.264Z,0.52
2022-08-20T17:56:32.195Z,0.50
2022-08-20T17:59:21.002Z,0.50
2022-08-20T18:02:08.956Z,0.70
2022-08-20T18:04:36.322Z,0.57
2022-08-20T18:07:09.700Z,0.68
2022-08-20T18:09:54.957Z,0.60
2022-08-20T18:12:33.582Z,0.63
2022-08-20T18:15:23.645Z,0.65
2022-08-20T18:18:03.755Z,0.40
2022-08-20T18:20:34.326Z,0.65
2022-08-20T18:23:20.249Z,0.70
2022-08-20T18:25:56.700Z,0.47
2022-08-20T18:28:38.551Z,0.75
2022-08-20T18:31:09.136Z,0.60
2022-08-20T18:33:42.912Z,0.43
2022-08-20T18:36:28.496Z,0.70
2022-08-20T18:39:27.071Z,0.70
2022-08-20T18:41:57.675Z,0.40
2022-08-20T18:44:35.251Z,0.60
2022-08-20T18:47:06.348Z,0.50
2022-08-20T18:49:39.381Z,0.50
2022-08-20T18:52:23.382Z,0.40
2022-08-20T18:54:56.504Z,0.52
2022-08-20T18:57:28.636Z,0.55
2022-08-20T19:00:16.382Z,0.65
2022-08-20T19:02:57.190Z,0.45
2022-08-20T19:05:40.001Z,1.10
2022-08-20T19:08:09.130Z,0.60
2022-08-20T19:10:42.469Z,0.50
2022-08-20T19:13:47.460Z,0.55
2022-08-20T19:16:25.604Z,0.45
2022-08-20T19:18:54.893Z,0.40
2022-08-20T19:21:37.721Z,0.60
2022-08-20T19:24:07.550Z,0.60
2022-08-20T19:26:57.582Z,0.40
2022-08-20T19:29:49.479Z,0.60
2022-08-20T19:32:21.569Z,0.50
2022-08-20T19:34:58.395Z,0.50
2022-08-20T19:37:40.011Z,0.40
2022-08-20T19:40:25.695Z,0.40
2022-08-20T19:42:59.563Z,0.40
2022-08-20T19:45:37.900Z,0.40
2022-08-20T19:48:27.246Z,0.40
2022-08-20T19:51:21.108Z,0.40
2022-08-20T19:53:49.657Z,0.30
2022-08-20T19:56:23.684Z,0.40
2022-08-20T19:59:07.469Z,0.40
2022-08-20T20:01:36.044Z,0.43
2022-08-20T20:04:07.698Z,0.50
2022-08-20T20:06:50.091Z,0.50
2022-08-20T20:09:19.783Z,0.60
2022-08-20T20:11:55.923Z,0.60
2022-08-20T20:14:29.743Z,0.50
2022-08-20T20:16:58.349Z,0.60
2022-08-20T20:19:27.775Z,0.40
2022-08-20T20:22:19.096Z,0.47
2022-08-20T20:24:50.914Z,0.50
2022-08-20T20:27:22.285Z,0.47
2022-08-20T20:29:51.899Z,0.40
2022-08-20T20:32:24.275Z,0.40
2022-08-20T20:34:57.358Z,0.50
2022-08-20T20:37:50.087Z,0.52
2022-08-20T20:40:36.063Z,0.40
2022-08-20T20:43:09.326Z,0.77
2022-08-20T20:45:55.883Z,0.60
2022-08-20T20:48:33.761Z,0.50
2022-08-20T20:51:12.005Z,0.50
2022-08-20T20:53:53.321Z,0.70
2022-08-20T20:56:43.025Z,0.30
2022-08-20T20:59:11.394Z,0.60
2022-08-20T21:01:49.363Z,0.50
2022-08-20T21:04:20.090Z,0.60
2022-08-20T21:06:47.438Z,0.40
2022-08-20T21:09:15.272Z,0.63
2022-08-20T21:11:42.579Z,0.40
2022-08-20T21:14:09.935Z,0.55
2022-08-20T21:16:37.219Z,0.60
2022-08-20T21:19:06.587Z,0.40
2022-08-20T21:21:34.232Z,0.45
2022-08-20T21:24:01.501Z,0.50
2022-08-20T21:26:29.121Z,0.63
2022-08-20T21:28:56.720Z,0.60
2022-08-20T21:31:34.624Z,0.50
2022-08-20T21:34:02.003Z,0.60
2022-08-20T21:36:29.348Z,0.77
2022-08-20T21:38:56.794Z,0.47
2022-08-20T21:41:30.285Z,0.50
2022-08-20T21:44:01.214Z,0.50
2022-08-20T21:46:28.930Z,0.32
2022-08-20T21:48:56.870Z,0.60
2022-08-20T21:51:24.249Z,0.52
2022-08-20T21:53:52.121Z,0.47
2022-08-20T21:56:19.705Z,0.60
2022-08-20T21:58:49.041Z,0.65
2022-08-20T22:01:18.305Z,0.30
2022-08-20T22:03:45.710Z,0.50
2022-08-20T22:06:16.927Z,0.30
2022-08-20T22:08:44.170Z,0.50
2022-08-20T22:11:13.336Z,0.40
2022-08-20T22:13:41.225Z,0.50
2022-08-20T22:16:10.999Z,0.47
2022-08-20T22:18:38.861Z,0.50
2022-08-20T22:21:10.264Z,0.40
2022-08-20T22:23:40.180Z,0.40
2022-08-20T22:26:08.157Z,0.30
2022-08-20T22:28:35.733Z,0.35
2022-08-20T22:31:03.775Z,0.57
2022-08-20T22:33:32.974Z,0.40
2022-08-20T22:36:01.041Z,0.40
2022-08-20T22:38:38.343Z,0.30
2022-08-20T22:41:10.074Z,0.52
2022-08-20T22:43:46.262Z,0.47
2022-08-20T22:46:27.216Z,0.30
2022-08-20T22:48:55.513Z,0.50
2022-08-20T22:51:30.402Z,0.40
2022-08-20T22:53:59.079Z,0.30
2022-08-20T22:56:27.402Z,0.40
2022-08-20T22:58:59.553Z,0.50
2022-08-20T23:01:27.679Z,0.40
2022-08-20T23:03:57.515Z,0.60
2022-08-20T23:06:26.895Z,0.32
2022-08-20T23:08:54.165Z,0.38
2022-08-20T23:11:21.905Z,0.40
2022-08-20T23:13:49.154Z,0.30
2022-08-20T23:16:16.489Z,0.20
2022-08-20T23:18:44.349Z,0.50
2022-08-20T23:21:11.609Z,0.45
2022-08-20T23:23:38.808Z,0.40
2022-08-20T23:26:06.987Z,0.40
2022-08-20T23:28:34.350Z,0.35
2022-08-20T23:31:01.879Z,0.50
2022-08-20T23:33:29.147Z,0.38
2022-08-20T23:35:56.588Z,0.40
2022-08-20T23:38:23.880Z,0.60
2022-08-20T23:40:51.096Z,0.38
2022-08-20T23:43:19.072Z,0.47
2022-08-20T23:45:46.378Z,0.38
2022-08-20T23:48:13.606Z,0.40
2022-08-20T23:50:40.920Z,0.43
2022-08-20T23:53:08.212Z,0.50
2022-08-20T23:55:35.660Z,0.50
2022-08-20T23:58:03.240Z,0.30
